Time;durP1;ratioP1;P1;durP2;ratioP2;P2;SDS_P1;SDS_P2;PMS_P1;PMS_P2;Temp;Humidity;BMP_temperature;BMP_pressure;BME280_temperature;BME280_humidity;BME280_pressure;Samples;Min_cycle;Max_cycle;Signal;HPM_P1;HPM_P2
2022/03/07 00:01:17;;;;;;;3.20;1.85;;;19.60;37.50;;;;;;5048993;28;20068;-50
2022/03/07 00:03:45;;;;;;;1.70;1.60;;;19.60;37.60;;;;;;5048920;28;20041;-49
2022/03/07 00:06:12;;;;;;;1.42;1.33;;;19.60;37.60;;;;;;5046764;28;20049;-49
2022/03/07 00:08:39;;;;;;;2.08;1.90;;;19.60;37.60;;;;;;5048851;28;20041;-48
2022/03/07 00:11:06;;;;;;;2.90;2.15;;;19.50;37.60;;;;;;5049873;28;20112;-50
2022/03/07 00:13:34;;;;;;;2.28;2.17;;;19.50;37.60;;;;;;5049661;28;20131;-48
2022/03/07 00:16:02;;;;;;;1.92;1.83;;;19.50;38.20;;;;;;5048664;28;20037;-48
2022/03/07 00:18:29;;;;;;;1.85;1.73;;;19.50;37.60;;;;;;5049172;28;20433;-47
2022/03/07 00:20:57;;;;;;;1.90;1.77;;;19.50;37.50;;;;;;5049182;28;20045;-51
2022/03/07 00:23:24;;;;;;;1.55;1.45;;;19.50;37.50;;;;;;5048492;28;20037;-53
2022/03/07 00:25:51;;;;;;;1.50;1.23;;;19.50;37.60;;;;;;5050811;28;20387;-50
2022/03/07 00:28:18;;;;;;;2.67;1.70;;;19.50;37.50;;;;;;5048944;28;20037;-51
2022/03/07 00:30:45;;;;;;;2.20;2.00;;;19.50;37.50;;;;;;5047035;28;20559;-50
2022/03/07 00:33:16;;;;;;;2.40;1.15;;;19.40;37.50;;;;;;5046631;28;20132;-49
2022/03/07 00:35:43;;;;;;;2.78;1.45;;;19.50;37.60;;;;;;5047085;28;20537;-49
2022/03/07 00:38:11;;;;;;;0.90;0.90;;;19.40;37.50;;;;;;5045468;28;20063;-48
2022/03/07 00:40:38;;;;;;;1.55;1.55;;;19.40;37.50;;;;;;5049899;28;20081;-48
2022/03/07 00:43:07;;;;;;;1.90;1.80;;;19.40;37.50;;;;;;5047102;28;20807;-52
2022/03/07 00:45:35;;;;;;;1.55;1.55;;;19.40;37.60;;;;;;5063539;28;20049;-51
2022/03/07 00:48:02;;;;;;;1.33;1.33;;;19.40;37.60;;;;;;5048350;28;20125;-50
2022/03/07 00:50:30;;;;;;;1.60;1.42;;;19.40;37.60;;;;;;5042273;28;20132;-52
2022/03/07 00:52:57;;;;;;;1.60;1.58;;;19.40;37.60;;;;;;5044547;28;20065;-49
2022/03/07 00:55:26;;;;;;;1.33;1.33;;;19.40;37.50;;;;;;5046607;28;20555;-50
2022/03/07 00:57:53;;;;;;;2.10;2.00;;;19.40;37.60;;;;;;5048185;28;20474;-48
2022/03/07 01:00:20;;;;;;;1.23;1.17;;;19.30;37.50;;;;;;5046611;28;20080;-50
2022/03/07 01:02:47;;;;;;;1.90;1.80;;;19.30;37.50;;;;;;5046687;28;20132;-48
2022/03/07 01:05:14;;;;;;;1.48;1.48;;;19.30;37.50;;;;;;5047968;28;20197;-49
2022/03/07 01:07:41;;;;;;;0.82;0.82;;;19.30;37.50;;;;;;5049663;28;20048;-51
2022/03/07 01:10:09;;;;;;;1.52;1.42;;;19.30;37.50;;;;;;5047802;28;20049;-49
2022/03/07 01:12:37;;;;;;;1.25;1.13;;;19.30;37.50;;;;;;5044214;28;20041;-49
2022/03/07 01:15:07;;;;;;;1.08;1.08;;;19.30;37.50;;;;;;5046491;28;20052;-50
2022/03/07 01:17:34;;;;;;;1.60;1.05;;;19.30;37.50;;;;;;5047937;28;20052;-51
2022/03/07 01:20:02;;;;;;;2.60;1.27;;;19.30;37.50;;;;;;5046896;28;20051;-52
2022/03/07 01:22:29;;;;;;;0.98;0.98;;;19.30;37.50;;;;;;5048983;28;20048;-53
2022/03/07 01:24:56;;;;;;;1.15;1.05;;;19.30;37.50;;;;;;5046304;28;20037;-49
2022/03/07 01:27:23;;;;;;;1.70;1.60;;;19.30;37.50;;;;;;5047178;28;20056;-51
2022/03/07 01:29:51;;;;;;;0.85;0.85;;;19.30;37.50;;;;;;5044222;28;20037;-50
2022/03/07 01:32:19;;;;;;;1.33;1.17;;;19.30;37.50;;;;;;5046166;28;20072;-49
2022/03/07 01:34:46;;;;;;;1.23;1.13;;;19.20;37.40;;;;;;5048606;28;20444;-50
2022/03/07 01:37:13;;;;;;;1.27;1.17;;;19.20;37.50;;;;;;5047466;28;20037;-53
2022/03/07 01:39:40;;;;;;;1.13;1.02;;;19.20;37.40;;;;;;5040906;28;20112;-51
2022/03/07 01:42:07;;;;;;;2.10;1.30;;;19.20;37.50;;;;;;5055977;28;20037;-52
2022/03/07 01:44:35;;;;;;;1.52;1.48;;;19.20;37.40;;;;;;5040578;28;20517;-51
2022/03/07 01:47:04;;;;;;;1.50;1.50;;;19.20;37.40;;;;;;5048110;28;20123;-51
2022/03/07 01:49:32;;;;;;;2.13;1.60;;;19.20;37.40;;;;;;5047812;28;20037;-52
2022/03/07 01:51:59;;;;;;;1.17;1.02;;;19.20;37.50;;;;;;5046887;28;20450;-49
2022/03/07 01:54:27;;;;;;;1.48;1.27;;;19.20;37.40;;;;;;5045685;28;20071;-47
2022/03/07 01:56:55;;;;;;;1.33;1.27;;;19.20;37.50;;;;;;5045832;28;20130;-52
2022/03/07 01:59:24;;;;;;;3.10;1.20;;;19.10;37.40;;;;;;5045924;28;20039;-49
2022/03/07 02:01:51;;;;;;;1.30;1.30;;;19.20;37.50;;;;;;5063771;28;20064;-50
2022/03/07 02:04:20;;;;;;;2.47;1.95;;;19.10;37.40;;;;;;5043434;28;20045;-50
2022/03/07 02:06:48;;;;;;;2.15;1.60;;;19.10;37.40;;;;;;5046651;28;20037;-48
2022/03/07 02:09:17;;;;;;;1.27;1.23;;;19.10;37.40;;;;;;5045201;28;20037;-50
2022/03/07 02:11:46;;;;;;;1.48;0.82;;;19.10;37.40;;;;;;5046890;28;20032;-49
2022/03/07 02:14:17;;;;;;;0.73;0.73;;;19.10;37.50;;;;;;5045438;28;20045;-50
2022/03/07 02:16:46;;;;;;;1.33;1.23;;;19.10;37.40;;;;;;5045472;28;20132;-49
2022/03/07 02:19:13;;;;;;;1.50;1.38;;;19.10;37.40;;;;;;5045138;28;20094;-52
2022/03/07 02:21:44;;;;;;;2.28;1.48;;;19.10;37.40;;;;;;5045687;28;20117;-51
2022/03/07 02:24:20;;;;;;;1.35;1.08;;;19.10;37.40;;;;;;5039737;28;20087;-52
2022/03/07 02:27:00;;;;;;;1.10;1.10;;;19.00;37.30;;;;;;5045415;28;20048;-49
2022/03/07 02:29:28;;;;;;;1.15;1.02;;;19.00;37.40;;;;;;5045223;28;20539;-48
2022/03/07 02:31:58;;;;;;;0.70;0.60;;;19.00;37.40;;;;;;5046643;28;20048;-48
2022/03/07 02:34:28;;;;;;;0.95;0.95;;;19.00;37.40;;;;;;5045543;28;20045;-50
2022/03/07 02:36:55;;;;;;;1.20;1.10;;;19.00;37.40;;;;;;5045801;28;20037;-49
2022/03/07 02:39:25;;;;;;;1.17;1.17;;;19.00;37.40;;;;;;5040781;28;20152;-51
2022/03/07 02:41:54;;;;;;;1.15;0.73;;;19.00;37.40;;;;;;5044873;28;20041;-50
2022/03/07 02:44:23;;;;;;;1.00;0.95;;;19.00;37.40;;;;;;5045149;28;20048;-51
2022/03/07 02:46:50;;;;;;;1.33;1.10;;;18.90;37.30;;;;;;5062919;28;20470;-54
2022/03/07 02:49:17;;;;;;;0.80;0.70;;;18.90;37.30;;;;;;5044694;28;20060;-52
2022/03/07 02:51:44;;;;;;;1.67;1.58;;;18.90;37.30;;;;;;5045823;28;20049;-52
2022/03/07 02:54:12;;;;;;;0.82;0.68;;;18.90;37.30;;;;;;5044651;28;20060;-48
2022/03/07 02:56:40;;;;;;;1.17;1.17;;;18.90;37.30;;;;;;5046042;28;20161;-48
2022/03/07 02:59:07;;;;;;;0.70;0.70;;;18.90;37.40;;;;;;5046568;28;20374;-52
2022/03/07 03:01:34;;;;;;;0.73;0.73;;;18.90;37.30;;;;;;5046752;28;20057;-48
2022/03/07 03:04:01;;;;;;;1.13;1.13;;;18.90;37.30;;;;;;5046026;28;20060;-54
2022/03/07 03:06:28;;;;;;;0.85;0.85;;;18.90;37.30;;;;;;5045740;28;20517;-50
2022/03/07 03:08:55;;;;;;;1.27;0.82;;;18.90;37.30;;;;;;5045644;28;20048;-49
2022/03/07 03:11:22;;;;;;;0.88;0.88;;;18.90;37.30;;;;;;5045837;28;20052;-51
2022/03/07 03:13:51;;;;;;;0.85;0.85;;;18.90;37.30;;;;;;5062623;28;20048;-54
2022/03/07 03:16:17;;;;;;;1.00;0.88;;;18.90;37.30;;;;;;5044723;28;20120;-51
2022/03/07 03:18:44;;;;;;;2.20;1.27;;;18.90;37.30;;;;;;5045649;28;20045;-47
2022/03/07 03:21:12;;;;;;;0.93;0.50;;;18.90;37.40;;;;;;5045278;28;20048;-50
2022/03/07 03:23:39;;;;;;;1.08;0.95;;;18.90;37.30;;;;;;5045526;28;20033;-50
2022/03/07 03:26:06;;;;;;;0.80;0.80;;;18.80;37.30;;;;;;5046262;28;20051;-49
2022/03/07 03:28:33;;;;;;;1.15;0.70;;;18.80;37.30;;;;;;5045511;28;20037;-49
2022/03/07 03:31:01;;;;;;;0.73;0.73;;;18.80;37.30;;;;;;5045311;28;20504;-49
2022/03/07 03:33:28;;;;;;;1.02;1.00;;;18.80;37.30;;;;;;5045445;28;20037;-49
2022/03/07 03:35:55;;;;;;;1.45;0.93;;;18.80;37.30;;;;;;5045050;28;20072;-48
2022/03/07 03:38:22;;;;;;;0.60;0.60;;;18.80;37.30;;;;;;5041471;28;20041;-50
2022/03/07 03:40:49;;;;;;;0.70;0.70;;;18.80;37.30;;;;;;5047146;28;20044;-49
2022/03/07 03:43:16;;;;;;;1.50;0.90;;;18.80;37.30;;;;;;5045315;28;20041;-49
2022/03/07 03:45:43;;;;;;;1.83;1.73;;;18.80;37.30;;;;;;5044922;28;20067;-51
2022/03/07 03:48:12;;;;;;;0.98;0.93;;;18.80;37.30;;;;;;5044925;28;20056;-52
2022/03/07 03:50:39;;;;;;;0.73;0.73;;;18.80;37.30;;;;;;5045284;28;20059;-50
2022/03/07 03:53:06;;;;;;;0.68;0.68;;;18.80;37.30;;;;;;5045926;28;20037;-49
2022/03/07 03:55:33;;;;;;;0.70;0.70;;;18.80;37.30;;;;;;5046746;28;20033;-50
2022/03/07 03:58:00;;;;;;;0.50;0.47;;;18.80;37.30;;;;;;5044938;28;20040;-50
2022/03/07 04:00:28;;;;;;;0.82;0.82;;;18.70;37.20;;;;;;5038226;28;20054;-53
2022/03/07 04:02:55;;;;;;;0.80;0.73;;;18.70;37.20;;;;;;5038837;28;20589;-49
2022/03/07 04:05:23;;;;;;;0.63;0.63;;;18.70;37.20;;;;;;5045050;28;20045;-50
2022/03/07 04:07:50;;;;;;;1.02;0.88;;;18.70;37.20;;;;;;5046857;28;20044;-48
2022/03/07 04:10:17;;;;;;;1.38;1.08;;;18.70;37.20;;;;;;5044950;28;20044;-49
2022/03/07 04:12:45;;;;;;;1.40;1.25;;;18.70;37.20;;;;;;5044929;28;20119;-54
2022/03/07 04:15:12;;;;;;;0.85;0.85;;;18.70;37.20;;;;;;5045194;28;20041;-52
2022/03/07 04:17:40;;;;;;;0.50;0.50;;;18.70;37.20;;;;;;5045130;28;20067;-48
2022/03/07 04:20:08;;;;;;;0.73;0.73;;;18.70;37.20;;;;;;5045609;28;20047;-50
2022/03/07 04:22:37;;;;;;;0.95;0.50;;;18.70;37.20;;;;;;5046322;28;20110;-50
2022/03/07 04:25:05;;;;;;;1.13;0.47;;;18.70;37.20;;;;;;5044735;28;20049;-51
2022/03/07 04:27:32;;;;;;;2.05;0.90;;;18.70;37.20;;;;;;5045094;28;20028;-52
2022/03/07 04:29:59;;;;;;;1.48;0.57;;;18.70;37.20;;;;;;5048072;28;20041;-50
2022/03/07 04:32:27;;;;;;;0.75;0.75;;;18.60;37.20;;;;;;5063341;28;20337;-51
2022/03/07 04:34:54;;;;;;;0.57;0.57;;;18.70;37.20;;;;;;5050141;28;20075;-53
2022/03/07 04:37:21;;;;;;;0.82;0.80;;;18.60;37.20;;;;;;5044022;28;20037;-49
2022/03/07 04:39:49;;;;;;;0.82;0.82;;;18.60;37.20;;;;;;5047300;28;20127;-48
2022/03/07 04:42:16;;;;;;;0.60;0.60;;;18.60;37.20;;;;;;5048403;28;20045;-49
2022/03/07 04:44:43;;;;;;;0.90;0.85;;;18.60;37.20;;;;;;5047112;28;20037;-53
2022/03/07 04:47:10;;;;;;;0.50;0.50;;;18.60;37.20;;;;;;5048668;28;20098;-50
2022/03/07 04:49:37;;;;;;;0.80;0.80;;;18.60;37.20;;;;;;5064933;28;20043;-48
2022/03/07 04:52:05;;;;;;;0.77;0.50;;;18.60;37.20;;;;;;5048153;28;20532;-52
2022/03/07 04:54:33;;;;;;;0.40;0.40;;;18.60;37.20;;;;;;5048424;28;20047;-48
2022/03/07 04:57:01;;;;;;;0.90;0.70;;;18.60;37.20;;;;;;5048298;28;20521;-49
2022/03/07 04:59:28;;;;;;;1.05;0.95;;;18.60;37.20;;;;;;5048057;28;20064;-50
2022/03/07 05:01:55;;;;;;;0.60;0.60;;;18.60;37.20;;;;;;5049355;28;20059;-53
2022/03/07 05:04:22;;;;;;;0.70;0.70;;;18.60;37.20;;;;;;5048354;28;20577;-51
2022/03/07 05:06:49;;;;;;;0.55;0.55;;;18.60;37.20;;;;;;5047705;28;20489;-51
2022/03/07 05:09:16;;;;;;;0.80;0.80;;;18.50;37.10;;;;;;5047243;28;20033;-49
2022/03/07 05:11:43;;;;;;;0.60;0.50;;;18.50;37.10;;;;;;5047476;28;20033;-49
2022/03/07 05:14:12;;;;;;;1.50;0.75;;;18.50;37.10;;;;;;5048305;28;20414;-51
2022/03/07 05:16:39;;;;;;;0.40;0.40;;;18.50;37.10;;;;;;5049082;28;20041;-50
2022/03/07 05:19:06;;;;;;;0.93;0.93;;;18.50;37.10;;;;;;5047607;28;20045;-48
2022/03/07 05:21:33;;;;;;;2.05;0.90;;;18.50;37.10;;;;;;5047489;28;20037;-51
2022/03/07 05:24:00;;;;;;;0.77;0.28;;;18.50;37.10;;;;;;5047367;28;20106;-48
2022/03/07 05:26:26;;;;;;;1.58;1.00;;;18.40;37.10;;;;;;5047078;28;20044;-51
2022/03/07 05:28:53;;;;;;;0.73;0.50;;;18.40;37.10;;;;;;5049270;28;20048;-48
2022/03/07 05:31:22;;;;;;;0.90;0.65;;;18.50;37.10;;;;;;5047723;28;20048;-50
2022/03/07 05:33:49;;;;;;;0.60;0.60;;;18.40;37.10;;;;;;5048207;28;20047;-50
2022/03/07 05:36:16;;;;;;;0.35;0.35;;;18.40;37.10;;;;;;5047776;28;20037;-49
2022/03/07 05:38:43;;;;;;;1.95;0.40;;;18.40;37.10;;;;;;5047282;28;20119;-50
2022/03/07 05:41:10;;;;;;;0.47;0.47;;;18.40;37.10;;;;;;5046699;28;20044;-48
2022/03/07 05:43:37;;;;;;;0.40;0.40;;;18.40;37.10;;;;;;5048701;28;20056;-51
2022/03/07 05:46:06;;;;;;;1.05;0.60;;;18.40;37.10;;;;;;5047498;28;20051;-48
2022/03/07 05:48:34;;;;;;;1.65;0.52;;;18.40;37.10;;;;;;5047175;28;20563;-52
2022/03/07 05:51:01;;;;;;;0.45;0.45;;;18.40;37.10;;;;;;5047432;28;20033;-52
2022/03/07 05:53:28;;;;;;;0.70;0.57;;;18.40;37.10;;;;;;5046879;28;20051;-50
2022/03/07 05:55:55;;;;;;;1.63;0.35;;;18.30;37.00;;;;;;5048269;28;20044;-50
2022/03/07 05:58:22;;;;;;;0.70;0.38;;;18.30;37.10;;;;;;5046893;28;20124;-52
2022/03/07 06:00:49;;;;;;;0.68;0.68;;;18.40;37.10;;;;;;5046587;28;20564;-49
2022/03/07 06:03:16;;;;;;;0.70;0.40;;;18.30;37.00;;;;;;5046245;28;20076;-50
2022/03/07 06:05:45;;;;;;;1.02;0.77;;;18.30;37.00;;;;;;5046688;28;20512;-51
2022/03/07 06:08:12;;;;;;;0.65;0.60;;;18.30;37.00;;;;;;5046927;28;20536;-52
2022/03/07 06:10:39;;;;;;;0.68;0.68;;;18.30;37.60;;;;;;5047464;28;20037;-51
2022/03/07 06:13:06;;;;;;;0.77;0.75;;;18.30;37.00;;;;;;5062520;28;20257;-49
2022/03/07 06:15:33;;;;;;;1.05;0.50;;;18.30;37.00;;;;;;5046287;28;20520;-49
2022/03/07 06:18:00;;;;;;;0.47;0.47;;;18.30;37.00;;;;;;5046390;28;20052;-48
2022/03/07 06:20:28;;;;;;;0.65;0.65;;;18.20;36.90;;;;;;5045662;28;20533;-50
2022/03/07 06:22:56;;;;;;;0.50;0.38;;;18.30;37.00;;;;;;5047540;28;20061;-49
2022/03/07 06:25:24;;;;;;;1.15;0.82;;;18.30;37.00;;;;;;5045376;28;20037;-49
2022/03/07 06:27:51;;;;;;;0.63;0.63;;;18.30;37.00;;;;;;5041179;28;20451;-51
2022/03/07 06:30:18;;;;;;;0.82;0.55;;;18.30;37.00;;;;;;5046365;28;20425;-49
2022/03/07 06:32:45;;;;;;;1.45;0.85;;;18.30;37.00;;;;;;5045916;28;20055;-48
2022/03/07 06:35:12;;;;;;;0.73;0.70;;;18.30;37.00;;;;;;5046288;28;20048;-48
2022/03/07 06:37:39;;;;;;;0.82;0.75;;;18.20;36.90;;;;;;5046247;28;20132;-51
2022/03/07 06:40:09;;;;;;;0.43;0.30;;;18.20;36.90;;;;;;5044242;28;20045;-51
2022/03/07 06:42:36;;;;;;;1.02;0.77;;;18.20;36.90;;;;;;5045695;28;20102;-48
2022/03/07 06:45:05;;;;;;;0.52;0.52;;;18.20;36.90;;;;;;5045989;28;20041;-47
2022/03/07 06:47:32;;;;;;;1.55;0.55;;;18.20;36.90;;;;;;5045778;28;20140;-50
2022/03/07 06:49:59;;;;;;;0.57;0.57;;;18.20;36.90;;;;;;5047382;28;20044;-49
2022/03/07 06:52:27;;;;;;;0.75;0.73;;;18.20;36.90;;;;;;5045478;28;20095;-48
2022/03/07 06:54:54;;;;;;;2.40;1.20;;;18.20;36.90;;;;;;5045593;28;20478;-53
2022/03/07 06:57:22;;;;;;;2.53;0.80;;;18.20;36.90;;;;;;5045811;28;20094;-50
2022/03/07 06:59:50;;;;;;;0.50;0.50;;;18.20;36.90;;;;;;5046034;28;20064;-49
2022/03/07 07:02:17;;;;;;;0.68;0.68;;;18.20;36.80;;;;;;5045593;28;20057;-50
2022/03/07 07:04:44;;;;;;;0.68;0.63;;;18.20;36.80;;;;;;5047287;28;20047;-47
2022/03/07 07:07:12;;;;;;;0.95;0.75;;;18.20;36.80;;;;;;5045260;28;20159;-51
2022/03/07 07:09:41;;;;;;;1.92;0.55;;;18.20;36.80;;;;;;5045031;28;20123;-48
2022/03/07 07:12:09;;;;;;;1.08;0.73;;;18.20;36.70;;;;;;5045786;28;20084;-46
2022/03/07 07:14:37;;;;;;;5.47;1.40;;;18.20;36.70;;;;;;5045705;28;20040;-48
2022/03/07 07:17:05;;;;;;;0.65;0.47;;;18.20;36.70;;;;;;5046211;28;20048;-48
2022/03/07 07:19:32;;;;;;;0.90;0.57;;;18.20;36.70;;;;;;5045294;28;20037;-53
2022/03/07 07:21:59;;;;;;;0.63;0.43;;;18.20;36.70;;;;;;5044933;28;20041;-49
2022/03/07 07:24:26;;;;;;;0.50;0.50;;;18.20;36.80;;;;;;5045309;28;20174;-49
2022/03/07 07:26:53;;;;;;;0.43;0.43;;;18.30;36.70;;;;;;5045335;28;20075;-46
2022/03/07 07:29:20;;;;;;;0.65;0.63;;;18.30;36.60;;;;;;5045073;28;20091;-50
2022/03/07 07:31:51;;;;;;;1.08;0.70;;;18.30;36.60;;;;;;5046685;28;20041;-47
2022/03/07 07:34:18;;;;;;;0.68;0.68;;;18.30;36.60;;;;;;5044952;28;20056;-51
2022/03/07 07:36:45;;;;;;;0.40;0.40;;;18.30;36.50;;;;;;5044528;28;20041;-47
2022/03/07 07:39:12;;;;;;;0.30;0.30;;;18.30;36.50;;;;;;5042132;28;20131;-47
2022/03/07 07:41:39;;;;;;;1.77;0.80;;;18.30;36.40;;;;;;5044635;28;20048;-48
2022/03/07 07:44:07;;;;;;;0.57;0.30;;;18.40;36.50;;;;;;5045821;28;20052;-48
2022/03/07 07:46:34;;;;;;;0.57;0.40;;;18.40;36.40;;;;;;5046595;28;20052;-48
2022/03/07 07:49:03;;;;;;;1.17;0.47;;;18.40;36.40;;;;;;5045053;28;20045;-48
2022/03/07 07:51:30;;;;;;;0.77;0.77;;;18.40;36.30;;;;;;5044320;28;20029;-48
2022/03/07 07:53:57;;;;;;;3.78;0.77;;;18.40;36.30;;;;;;5045087;28;20133;-48
2022/03/07 07:56:24;;;;;;;0.77;0.77;;;18.40;36.20;;;;;;5045070;28;20056;-48
2022/03/07 07:58:51;;;;;;;3.47;0.70;;;18.40;36.20;;;;;;5044103;28;20059;-48
2022/03/07 08:01:18;;;;;;;2.63;0.98;;;18.50;36.20;;;;;;5044183;28;20061;-51
2022/03/07 08:03:45;;;;;;;1.73;0.93;;;18.40;36.10;;;;;;5048121;28;20735;-46
2022/03/07 08:06:15;;;;;;;0.73;0.73;;;18.50;36.10;;;;;;5050005;28;20148;-46
2022/03/07 08:08:42;;;;;;;0.60;0.60;;;18.50;36.10;;;;;;5049530;28;20124;-52
2022/03/07 08:11:09;;;;;;;1.85;1.15;;;18.50;36.10;;;;;;5049304;28;20536;-47
2022/03/07 08:13:36;;;;;;;1.63;1.40;;;18.50;36.00;;;;;;5050053;28;20048;-47
2022/03/07 08:16:04;;;;;;;3.28;0.57;;;18.50;36.00;;;;;;5049561;28;20056;-46
2022/03/07 08:18:31;;;;;;;1.15;0.55;;;18.50;36.00;;;;;;5048578;28;20120;-47
2022/03/07 08:20:59;;;;;;;0.98;0.98;;;18.50;35.90;;;;;;5048739;28;20128;-47
2022/03/07 08:23:29;;;;;;;1.10;1.10;;;18.50;35.90;;;;;;5048733;28;20093;-46
2022/03/07 08:25:57;;;;;;;0.85;0.75;;;18.50;35.80;;;;;;5050255;28;20071;-46
2022/03/07 08:28:25;;;;;;;0.80;0.80;;;18.50;35.80;;;;;;5048898;28;20059;-50
2022/03/07 08:30:52;;;;;;;3.13;1.17;;;18.50;35.70;;;;;;5047022;28;20067;-48
2022/03/07 08:33:19;;;;;;;0.30;0.30;;;18.60;35.70;;;;;;5045320;28;20053;-46
2022/03/07 08:35:46;;;;;;;0.70;0.70;;;18.60;35.70;;;;;;5048496;28;20134;-47
2022/03/07 08:38:13;;;;;;;1.30;1.17;;;18.60;35.70;;;;;;5044475;28;20049;-49
2022/03/07 08:40:42;;;;;;;0.63;0.47;;;18.60;35.70;;;;;;5049382;28;20063;-50
2022/03/07 08:43:09;;;;;;;3.42;0.75;;;18.60;35.60;;;;;;5048083;28;20049;-47
2022/03/07 08:45:36;;;;;;;0.43;0.43;;;18.60;35.60;;;;;;5047829;28;20044;-50
2022/03/07 08:48:03;;;;;;;0.75;0.75;;;18.60;35.90;;;;;;5047792;28;20134;-48
2022/03/07 08:50:30;;;;;;;1.55;0.80;;;18.60;35.50;;;;;;5047890;28;20519;-48
2022/03/07 08:52:57;;;;;;;1.05;0.82;;;18.70;35.50;;;;;;5049576;28;20080;-48
2022/03/07 08:55:24;;;;;;;0.85;0.85;;;18.60;35.40;;;;;;5047681;28;20049;-48
2022/03/07 08:57:53;;;;;;;0.52;0.52;;;18.70;35.40;;;;;;5047819;28;20075;-47
2022/03/07 09:00:20;;;;;;;0.90;0.70;;;18.70;35.40;;;;;;5046602;28;20049;-50
2022/03/07 09:02:48;;;;;;;1.00;0.50;;;18.70;35.40;;;;;;5047189;28;20045;-48
2022/03/07 09:05:15;;;;;;;0.50;0.50;;;18.70;35.30;;;;;;5047801;28;20048;-48
2022/03/07 09:07:42;;;;;;;1.55;0.35;;;18.70;35.30;;;;;;5047293;28;20059;-47
2022/03/07 09:10:10;;;;;;;0.63;0.63;;;18.70;35.20;;;;;;5047541;28;20494;-49
2022/03/07 09:12:37;;;;;;;0.90;0.70;;;18.70;35.20;;;;;;5047273;28;20068;-46
2022/03/07 09:15:07;;;;;;;2.78;0.82;;;18.70;35.10;;;;;;5046986;28;20041;-49
2022/03/07 09:17:34;;;;;;;0.52;0.52;;;18.80;35.10;;;;;;5047608;28;20120;-52
2022/03/07 09:20:02;;;;;;;1.08;0.50;;;18.80;35.10;;;;;;5049043;28;20037;-48
2022/03/07 09:22:29;;;;;;;1.17;0.90;;;18.80;35.10;;;;;;5048173;28;20049;-48
2022/03/07 09:24:56;;;;;;;0.77;0.77;;;18.80;35.10;;;;;;5043077;28;20441;-49
2022/03/07 09:27:23;;;;;;;0.60;0.60;;;18.80;35.00;;;;;;5040962;28;20462;-47
2022/03/07 09:29:50;;;;;;;0.45;0.32;;;18.80;35.00;;;;;;5047087;28;20038;-45
2022/03/07 09:32:18;;;;;;;1.35;1.35;;;18.90;35.00;;;;;;5047665;28;20143;-49
2022/03/07 09:34:45;;;;;;;0.60;0.60;;;18.80;34.90;;;;;;5048557;28;20055;-49
2022/03/07 09:37:13;;;;;;;1.10;0.30;;;18.80;34.80;;;;;;5047203;28;20498;-46
2022/03/07 09:39:40;;;;;;;2.30;0.70;;;18.90;34.90;;;;;;5042635;28;20055;-46
2022/03/07 09:42:08;;;;;;;0.88;0.60;;;18.90;34.90;;;;;;5046568;28;20044;-47
2022/03/07 09:44:36;;;;;;;1.00;1.00;;;18.90;34.90;;;;;;5047089;28;20033;-52
2022/03/07 09:47:04;;;;;;;3.25;0.43;;;19.00;34.80;;;;;;5047474;28;20044;-50
2022/03/07 09:49:34;;;;;;;0.70;0.70;;;19.00;34.80;;;;;;5047529;28;20041;-53
2022/03/07 09:52:03;;;;;;;0.30;0.30;;;19.00;34.70;;;;;;5046629;28;20129;-47
2022/03/07 09:54:30;;;;;;;1.88;1.08;;;19.00;34.70;;;;;;5046737;28;20029;-47
2022/03/07 09:56:57;;;;;;;2.80;0.75;;;19.00;34.70;;;;;;5046800;28;20051;-47
2022/03/07 09:59:25;;;;;;;1.05;0.45;;;19.00;34.60;;;;;;5046861;28;20044;-50
2022/03/07 10:02:03;;;;;;;1.17;0.70;;;19.10;34.70;;;;;;5047949;28;20527;-48
2022/03/07 10:04:31;;;;;;;0.60;0.52;;;19.10;34.60;;;;;;5047138;28;20041;-48
2022/03/07 10:07:02;;;;;;;1.85;0.60;;;19.10;34.60;;;;;;5046660;28;20069;-50
2022/03/07 10:09:30;;;;;;;1.42;1.20;;;19.10;34.60;;;;;;5046710;28;20048;-48
2022/03/07 10:12:00;;;;;;;1.38;0.70;;;19.10;34.50;;;;;;5046533;28;20044;-51
2022/03/07 10:14:32;;;;;;;1.75;0.63;;;19.20;34.60;;;;;;5045560;28;20041;-49
2022/03/07 10:17:00;;;;;;;1.85;0.50;;;19.20;34.50;;;;;;5059024;28;20452;-51
2022/03/07 10:19:28;;;;;;;1.83;1.33;;;19.20;34.40;;;;;;5046166;28;20041;-47
2022/03/07 10:21:55;;;;;;;0.50;0.50;;;19.30;34.40;;;;;;5046165;28;20029;-50
2022/03/07 10:24:33;;;;;;;0.70;0.60;;;19.30;34.40;;;;;;5046987;28;20807;-46
2022/03/07 10:27:01;;;;;;;0.75;0.45;;;19.40;34.30;;;;;;5046007;28;20052;-47
2022/03/07 10:29:28;;;;;;;0.65;0.22;;;19.40;34.30;;;;;;5046567;28;20585;-49
2022/03/07 10:31:55;;;;;;;0.95;0.30;;;19.40;34.30;;;;;;5048971;28;20513;-48
2022/03/07 10:34:23;;;;;;;0.88;0.85;;;19.50;34.20;;;;;;5046534;28;20083;-48
2022/03/07 10:36:50;;;;;;;1.65;0.80;;;19.50;34.20;;;;;;5046176;28;20037;-46
2022/03/07 10:39:25;;;;;;;0.50;0.50;;;19.50;34.10;;;;;;5041797;28;20041;-47
2022/03/07 10:41:54;;;;;;;0.88;0.50;;;19.60;34.10;;;;;;5046217;28;20041;-49
2022/03/07 10:44:29;;;;;;;0.80;0.80;;;19.60;34.00;;;;;;5046441;28;20045;-46
2022/03/07 10:47:07;;;;;;;0.43;0.20;;;19.70;34.00;;;;;;5047268;28;20045;-47
2022/03/07 10:49:35;;;;;;;1.13;0.68;;;19.70;33.90;;;;;;5046942;28;20052;-50
2022/03/07 10:52:04;;;;;;;0.40;0.32;;;19.70;33.80;;;;;;5045900;28;20048;-49
2022/03/07 10:54:37;;;;;;;0.73;0.73;;;19.80;33.90;;;;;;5045586;28;20106;-48
2022/03/07 10:57:09;;;;;;;0.65;0.65;;;19.80;33.70;;;;;;5046097;28;20049;-46
2022/03/07 10:59:37;;;;;;;0.52;0.40;;;19.90;33.70;;;;;;5039360;28;20043;-46
2022/03/07 11:02:09;;;;;;;0.68;0.45;;;20.00;33.60;;;;;;5042811;28;20088;-49
2022/03/07 11:04:38;;;;;;;1.95;1.10;;;20.00;33.40;;;;;;5046099;28;20418;-48
2022/03/07 11:07:06;;;;;;;0.98;0.85;;;20.10;33.20;;;;;;5045564;28;20045;-46
2022/03/07 11:09:33;;;;;;;0.45;0.45;;;20.20;33.10;;;;;;5045382;28;20055;-48
2022/03/07 11:12:01;;;;;;;0.65;0.40;;;20.20;33.10;;;;;;5045546;28;20045;-47
2022/03/07 11:14:30;;;;;;;1.85;0.50;;;20.30;33.00;;;;;;5044616;28;20091;-48
2022/03/07 11:16:58;;;;;;;0.68;0.20;;;20.30;32.90;;;;;;5047375;28;20045;-46
2022/03/07 11:19:25;;;;;;;2.33;0.30;;;20.40;32.80;;;;;;5045074;28;20037;-49
2022/03/07 11:21:55;;;;;;;0.65;0.40;;;20.50;32.80;;;;;;5045271;28;20048;-51
2022/03/07 11:24:24;;;;;;;1.02;0.60;;;20.50;32.70;;;;;;5039864;28;20147;-50
2022/03/07 11:26:54;;;;;;;0.63;0.20;;;20.60;32.70;;;;;;5045887;28;20045;-48
2022/03/07 11:29:35;;;;;;;0.50;0.30;;;20.70;32.70;;;;;;5045574;28;20055;-47
2022/03/07 11:32:04;;;;;;;1.98;0.30;;;20.70;32.60;;;;;;5043440;28;20071;-49
2022/03/07 11:34:31;;;;;;;0.45;0.45;;;20.80;32.50;;;;;;5047273;28;20048;-47
2022/03/07 11:36:59;;;;;;;0.30;0.22;;;20.80;32.50;;;;;;5046320;28;20045;-48
2022/03/07 11:39:34;;;;;;;0.90;0.20;;;20.90;32.40;;;;;;5049774;28;20056;-47
2022/03/07 11:42:12;;;;;;;0.20;0.20;;;21.00;32.40;;;;;;5049883;28;20049;-49
2022/03/07 11:44:42;;;;;;;0.32;0.32;;;21.00;32.30;;;;;;5047030;28;20041;-47
2022/03/07 11:47:11;;;;;;;0.63;0.45;;;21.00;32.30;;;;;;5049888;28;20453;-47
2022/03/07 11:49:39;;;;;;;1.20;0.30;;;21.10;32.30;;;;;;5048484;28;20040;-50
2022/03/07 11:52:08;;;;;;;0.20;0.20;;;21.20;32.20;;;;;;5049012;28;20136;-49
2022/03/07 11:54:49;;;;;;;0.30;0.30;;;21.20;32.10;;;;;;5049102;28;20041;-46
2022/03/07 11:57:17;;;;;;;0.57;0.40;;;21.30;32.20;;;;;;5042858;28;20158;-46
2022/03/07 11:59:46;;;;;;;0.43;0.20;;;21.30;32.20;;;;;;5046131;28;20037;-48
2022/03/07 12:02:13;;;;;;;1.40;0.40;;;21.40;32.10;;;;;;5049362;28;20131;-47
2022/03/07 12:04:42;;;;;;;0.25;0.25;;;21.50;32.10;;;;;;5049853;28;20045;-48
2022/03/07 12:07:09;;;;;;;0.20;0.20;;;21.60;32.10;;;;;;5046192;28;20124;-47
2022/03/07 12:09:38;;;;;;;0.32;0.20;;;21.60;32.00;;;;;;5042851;28;20040;-50
2022/03/07 12:12:07;;;;;;;1.65;0.68;;;21.70;32.00;;;;;;5042542;28;20041;-50
2022/03/07 12:14:37;;;;;;;0.80;0.45;;;21.70;31.90;;;;;;5042610;28;20043;-50
2022/03/07 12:17:14;;;;;;;0.30;0.20;;;21.80;31.90;;;;;;5046299;28;20123;-49
2022/03/07 12:19:41;;;;;;;0.40;0.35;;;21.80;31.80;;;;;;5049704;28;20465;-53
2022/03/07 12:22:13;;;;;;;0.35;0.10;;;21.90;31.80;;;;;;5048684;28;20497;-51
2022/03/07 12:24:40;;;;;;;0.30;0.30;;;21.90;32.30;;;;;;5048263;28;20039;-50
2022/03/07 12:27:08;;;;;;;0.30;0.20;;;22.00;31.70;;;;;;5048413;28;20071;-52
2022/03/07 12:29:41;;;;;;;0.43;0.30;;;22.00;31.70;;;;;;5048600;28;20043;-48
2022/03/07 12:32:08;;;;;;;0.60;0.60;;;22.10;31.60;;;;;;5048510;28;20056;-50
2022/03/07 12:34:39;;;;;;;4.95;0.20;;;22.20;31.60;;;;;;5049394;28;20132;-48
2022/03/07 12:37:10;;;;;;;1.10;0.20;;;22.20;31.50;;;;;;5048056;28;20048;-47
2022/03/07 12:39:46;;;;;;;0.38;0.25;;;22.30;31.50;;;;;;5047346;28;20041;-47
2022/03/07 12:42:14;;;;;;;1.13;0.20;;;22.40;31.50;;;;;;5047856;28;20064;-47
2022/03/07 12:44:42;;;;;;;0.82;0.20;;;22.30;31.40;;;;;;5045563;28;20507;-48
2022/03/07 12:47:10;;;;;;;0.20;0.20;;;22.50;31.50;;;;;;5048713;28;20126;-47
2022/03/07 12:49:39;;;;;;;1.65;0.10;;;22.50;31.40;;;;;;5047783;28;20049;-47
2022/03/07 12:52:08;;;;;;;0.20;0.20;;;22.60;31.30;;;;;;5047761;28;20073;-49